sensor_id;sensor_type;location;lat;lon;timestamp;temperature;humidity
10692;DHT22;5396;50.950;6.988;2023-06-24T00:01:14;18.90;99.90
10692;DHT22;5396;50.950;6.988;2023-06-24T00:03:40;18.90;99.90
10692;DHT22;5396;50.950;6.988;2023-06-24T00:06:06;18.90;99.90
10692;DHT22;5396;50.950;6.988;2023-06-24T00:08:31;18.80;99.90
10692;DHT22;5396;50.950;6.988;2023-06-24T00:11:02;18.90;99.90
10692;DHT22;5396;50.950;6.988;2023-06-24T00:13:28;18.80;99.90
10692;DHT22;5396;50.950;6.988;2023-06-24T00:15:56;18.80;99.90
10692;DHT22;5396;50.950;6.988;2023-06-24T00:18:22;18.90;99.90
10692;DHT22;5396;50.950;6.988;2023-06-24T00:20:50;18.90;99.90
10692;DHT22;5396;50.950;6.988;2023-06-24T00:23:17;18.80;99.90
10692;DHT22;5396;50.950;6.988;2023-06-24T00:25:50;18.80;99.90
10692;DHT22;5396;50.950;6.988;2023-06-24T00:28:16;18.80;99.90
10692;DHT22;5396;50.950;6.988;2023-06-24T00:30:41;18.90;99.90
10692;DHT22;5396;50.950;6.988;2023-06-24T00:33:07;18.80;99.90
10692;DHT22;5396;50.950;6.988;2023-06-24T00:35:36;18.70;99.90
10692;DHT22;5396;50.950;6.988;2023-06-24T00:38:03;18.70;99.90
10692;DHT22;5396;50.950;6.988;2023-06-24T00:40:28;18.70;99.90
10692;DHT22;5396;50.950;6.988;2023-06-24T00:42:54;18.60;99.90
10692;DHT22;5396;50.950;6.988;2023-06-24T00:45:21;18.50;99.90
10692;DHT22;5396;50.950;6.988;2023-06-24T00:47:47;18.50;99.90
10692;DHT22;5396;50.950;6.988;2023-06-24T00:50:15;18.40;99.90
10692;DHT22;5396;50.950;6.988;2023-06-24T00:52:41;18.30;99.90
10692;DHT22;5396;50.950;6.988;2023-06-24T00:55:11;18.20;99.90
10692;DHT22;5396;50.950;6.988;2023-06-24T00:57:45;18.20;99.90
10692;DHT22;5396;50.950;6.988;2023-06-24T01:00:17;18.10;99.90
10692;DHT22;5396;50.950;6.988;2023-06-24T01:02:44;18.10;99.90
10692;DHT22;5396;50.950;6.988;2023-06-24T01:05:10;18.00;99.90
10692;DHT22;5396;50.950;6.988;2023-06-24T01:07:38;18.00;99.90
10692;DHT22;5396;50.950;6.988;2023-06-24T01:10:04;17.90;99.90
10692;DHT22;5396;50.950;6.988;2023-06-24T01:12:33;17.90;99.90
10692;DHT22;5396;50.950;6.988;2023-06-24T01:14:59;17.90;99.90
10692;DHT22;5396;50.950;6.988;2023-06-24T01:17:33;17.80;99.90
10692;DHT22;5396;50.950;6.988;2023-06-24T01:28:56;17.70;99.90
10692;DHT22;5396;50.950;6.988;2023-06-24T01:31:48;17.70;99.90
10692;DHT22;5396;50.950;6.988;2023-06-24T01:34:20;17.70;99.90
10692;DHT22;5396;50.950;6.988;2023-06-24T01:37:00;17.70;99.90
10692;DHT22;5396;50.950;6.988;2023-06-24T01:39:32;17.60;99.90
10692;DHT22;5396;50.950;6.988;2023-06-24T01:42:10;17.60;99.90
10692;DHT22;5396;50.950;6.988;2023-06-24T01:44:37;17.60;99.90
10692;DHT22;5396;50.950;6.988;2023-06-24T01:47:05;17.60;99.90
10692;DHT22;5396;50.950;6.988;2023-06-24T01:49:31;17.60;99.90
10692;DHT22;5396;50.950;6.988;2023-06-24T01:51:59;17.60;99.90
10692;DHT22;5396;50.950;6.988;2023-06-24T01:54:28;17.50;99.90
10692;DHT22;5396;50.950;6.988;2023-06-24T01:56:55;17.50;99.90
10692;DHT22;5396;50.950;6.988;2023-06-24T01:59:22;17.50;99.90
10692;DHT22;5396;50.950;6.988;2023-06-24T02:01:50;17.50;99.90
10692;DHT22;5396;50.950;6.988;2023-06-24T02:04:17;17.50;99.90
10692;DHT22;5396;50.950;6.988;2023-06-24T02:06:44;17.50;99.90
10692;DHT22;5396;50.950;6.988;2023-06-24T02:09:11;17.50;99.90
10692;DHT22;5396;50.950;6.988;2023-06-24T02:11:38;17.50;99.90
10692;DHT22;5396;50.950;6.988;2023-06-24T02:14:05;17.50;99.90
10692;DHT22;5396;50.950;6.988;2023-06-24T02:16:33;17.50;99.90
10692;DHT22;5396;50.950;6.988;2023-06-24T02:19:01;17.50;99.90
10692;DHT22;5396;50.950;6.988;2023-06-24T02:21:28;17.50;99.90
10692;DHT22;5396;50.950;6.988;2023-06-24T02:23:54;17.50;99.90
10692;DHT22;5396;50.950;6.988;2023-06-24T02:26:22;17.50;99.90
10692;DHT22;5396;50.950;6.988;2023-06-24T02:28:49;17.50;99.90
10692;DHT22;5396;50.950;6.988;2023-06-24T02:31:15;17.50;99.90
10692;DHT22;5396;50.950;6.988;2023-06-24T02:33:41;17.50;99.90
10692;DHT22;5396;50.950;6.988;2023-06-24T02:36:07;17.50;99.90
10692;DHT22;5396;50.950;6.988;2023-06-24T02:38:34;17.50;99.90
10692;DHT22;5396;50.950;6.988;2023-06-24T02:41:00;17.50;99.90
10692;DHT22;5396;50.950;6.988;2023-06-24T02:43:28;17.40;99.90
10692;DHT22;5396;50.950;6.988;2023-06-24T02:45:53;17.40;99.90
10692;DHT22;5396;50.950;6.988;2023-06-24T02:48:20;17.40;99.90
10692;DHT22;5396;50.950;6.988;2023-06-24T02:50:47;17.30;99.90
10692;DHT22;5396;50.950;6.988;2023-06-24T02:53:14;17.30;99.90
10692;DHT22;5396;50.950;6.988;2023-06-24T02:55:40;17.30;99.90
10692;DHT22;5396;50.950;6.988;2023-06-24T02:58:08;17.30;99.90
10692;DHT22;5396;50.950;6.988;2023-06-24T03:00:34;17.30;99.90
10692;DHT22;5396;50.950;6.988;2023-06-24T03:03:04;17.20;99.90
10692;DHT22;5396;50.950;6.988;2023-06-24T03:05:31;17.20;99.90
10692;DHT22;5396;50.950;6.988;2023-06-24T03:07:58;17.10;99.90
10692;DHT22;5396;50.950;6.988;2023-06-24T03:10:24;17.20;99.90
10692;DHT22;5396;50.950;6.988;2023-06-24T03:12:51;17.10;99.90
10692;DHT22;5396;50.950;6.988;2023-06-24T03:15:16;17.10;99.90
10692;DHT22;5396;50.950;6.988;2023-06-24T03:17:42;17.10;99.90
10692;DHT22;5396;50.950;6.988;2023-06-24T03:20:08;17.10;99.90
10692;DHT22;5396;50.950;6.988;2023-06-24T03:22:34;17.10;99.90
10692;DHT22;5396;50.950;6.988;2023-06-24T03:25:00;17.10;99.90
10692;DHT22;5396;50.950;6.988;2023-06-24T03:27:26;17.10;99.90
10692;DHT22;5396;50.950;6.988;2023-06-24T03:29:51;17.10;99.90
10692;DHT22;5396;50.950;6.988;2023-06-24T03:32:17;17.10;99.90
10692;DHT22;5396;50.950;6.988;2023-06-24T03:34:42;17.10;99.90
10692;DHT22;5396;50.950;6.988;2023-06-24T03:37:08;17.10;99.90
10692;DHT22;5396;50.950;6.988;2023-06-24T03:39:34;17.10;99.90
10692;DHT22;5396;50.950;6.988;2023-06-24T03:41:59;17.20;99.90
10692;DHT22;5396;50.950;6.988;2023-06-24T03:44:26;17.20;99.90
10692;DHT22;5396;50.950;6.988;2023-06-24T03:46:52;17.10;99.90
10692;DHT22;5396;50.950;6.988;2023-06-24T03:49:17;17.10;99.90
10692;DHT22;5396;50.950;6.988;2023-06-24T03:51:43;17.10;99.90
10692;DHT22;5396;50.950;6.988;2023-06-24T03:54:09;17.10;99.90
10692;DHT22;5396;50.950;6.988;2023-06-24T03:56:35;17.10;99.90
10692;DHT22;5396;50.950;6.988;2023-06-24T03:59:01;17.10;99.90
10692;DHT22;5396;50.950;6.988;2023-06-24T04:01:26;17.10;99.90
10692;DHT22;5396;50.950;6.988;2023-06-24T04:03:57;17.10;99.90
10692;DHT22;5396;50.950;6.988;2023-06-24T04:06:22;17.10;99.90
10692;DHT22;5396;50.950;6.988;2023-06-24T04:08:48;17.10;99.90
10692;DHT22;5396;50.950;6.988;2023-06-24T04:11:14;17.10;99.90
10692;DHT22;5396;50.950;6.988;2023-06-24T04:13:39;17.20;99.90
10692;DHT22;5396;50.950;6.988;2023-06-24T04:16:05;17.20;99.90
10692;DHT22;5396;50.950;6.988;2023-06-24T04:18:31;17.20;99.90
10692;DHT22;5396;50.950;6.988;2023-06-24T04:20:56;17.20;99.90
10692;DHT22;5396;50.950;6.988;2023-06-24T04:23:23;17.30;99.90
10692;DHT22;5396;50.950;6.988;2023-06-24T04:25:49;17.30;99.90
10692;DHT22;5396;50.950;6.988;2023-06-24T04:28:14;17.30;99.90
10692;DHT22;5396;50.950;6.988;2023-06-24T04:30:40;17.40;99.90
10692;DHT22;5396;50.950;6.988;2023-06-24T04:33:06;17.40;99.90
10692;DHT22;5396;50.950;6.988;2023-06-24T04:35:31;17.40;99.90
10692;DHT22;5396;50.950;6.988;2023-06-24T04:37:57;17.40;99.90
10692;DHT22;5396;50.950;6.988;2023-06-24T04:40:22;17.40;99.90
10692;DHT22;5396;50.950;6.988;2023-06-24T04:42:48;17.50;99.90
10692;DHT22;5396;50.950;6.988;2023-06-24T04:45:13;17.50;99.90
10692;DHT22;5396;50.950;6.988;2023-06-24T04:47:39;17.50;99.90
10692;DHT22;5396;50.950;6.988;2023-06-24T04:50:04;17.50;99.90
10692;DHT22;5396;50.950;6.988;2023-06-24T04:52:30;17.60;99.90
10692;DHT22;5396;50.950;6.988;2023-06-24T04:54:56;17.60;99.90
10692;DHT22;5396;50.950;6.988;2023-06-24T04:57:29;17.60;99.90
10692;DHT22;5396;50.950;6.988;2023-06-24T04:59:56;17.60;99.90
10692;DHT22;5396;50.950;6.988;2023-06-24T05:02:21;17.60;99.90
10692;DHT22;5396;50.950;6.988;2023-06-24T05:04:47;17.70;99.90
10692;DHT22;5396;50.950;6.988;2023-06-24T05:07:13;17.70;99.90
10692;DHT22;5396;50.950;6.988;2023-06-24T05:09:39;17.80;99.90
10692;DHT22;5396;50.950;6.988;2023-06-24T05:12:05;17.80;99.90
10692;DHT22;5396;50.950;6.988;2023-06-24T05:14:31;17.80;99.90
10692;DHT22;5396;50.950;6.988;2023-06-24T05:16:57;17.90;99.90
10692;DHT22;5396;50.950;6.988;2023-06-24T05:19:23;17.90;99.90
10692;DHT22;5396;50.950;6.988;2023-06-24T05:21:48;18.00;99.90
10692;DHT22;5396;50.950;6.988;2023-06-24T05:24:14;18.00;99.90
10692;DHT22;5396;50.950;6.988;2023-06-24T05:26:40;18.10;99.90
10692;DHT22;5396;50.950;6.988;2023-06-24T05:29:05;18.10;99.90
10692;DHT22;5396;50.950;6.988;2023-06-24T05:31:32;18.20;99.90
10692;DHT22;5396;50.950;6.988;2023-06-24T05:33:58;18.20;99.90
10692;DHT22;5396;50.950;6.988;2023-06-24T05:36:23;18.30;99.90
10692;DHT22;5396;50.950;6.988;2023-06-24T05:38:49;18.30;99.90
10692;DHT22;5396;50.950;6.988;2023-06-24T05:41:15;18.40;99.90
10692;DHT22;5396;50.950;6.988;2023-06-24T05:43:42;18.50;99.90
10692;DHT22;5396;50.950;6.988;2023-06-24T05:46:09;18.50;99.90
10692;DHT22;5396;50.950;6.988;2023-06-24T05:48:34;18.60;99.90
10692;DHT22;5396;50.950;6.988;2023-06-24T05:51:00;18.70;99.90
10692;DHT22;5396;50.950;6.988;2023-06-24T05:53:25;18.70;99.90
10692;DHT22;5396;50.950;6.988;2023-06-24T05:55:51;18.80;99.90
10692;DHT22;5396;50.950;6.988;2023-06-24T05:58:16;18.80;99.90
10692;DHT22;5396;50.950;6.988;2023-06-24T06:00:42;18.90;99.90
10692;DHT22;5396;50.950;6.988;2023-06-24T06:03:07;18.90;99.90
10692;DHT22;5396;50.950;6.988;2023-06-24T06:05:34;19.00;99.90
10692;DHT22;5396;50.950;6.988;2023-06-24T06:08:00;19.00;99.90
10692;DHT22;5396;50.950;6.988;2023-06-24T06:10:25;19.10;99.90
10692;DHT22;5396;50.950;6.988;2023-06-24T06:12:51;19.20;99.90
10692;DHT22;5396;50.950;6.988;2023-06-24T06:15:18;19.30;99.90
10692;DHT22;5396;50.950;6.988;2023-06-24T06:17:45;19.40;99.90
10692;DHT22;5396;50.950;6.988;2023-06-24T06:20:11;19.40;99.90
10692;DHT22;5396;50.950;6.988;2023-06-24T06:22:37;19.60;99.90
10692;DHT22;5396;50.950;6.988;2023-06-24T06:25:06;19.60;99.90
10692;DHT22;5396;50.950;6.988;2023-06-24T06:27:33;19.60;99.90
10692;DHT22;5396;50.950;6.988;2023-06-24T06:29:59;19.70;99.90
10692;DHT22;5396;50.950;6.988;2023-06-24T06:32:25;19.70;99.90
10692;DHT22;5396;50.950;6.988;2023-06-24T06:34:50;19.80;99.90
10692;DHT22;5396;50.950;6.988;2023-06-24T06:37:16;20.00;99.90
10692;DHT22;5396;50.950;6.988;2023-06-24T06:39:41;20.10;99.90
10692;DHT22;5396;50.950;6.988;2023-06-24T06:42:07;20.20;99.90
10692;DHT22;5396;50.950;6.988;2023-06-24T06:44:33;20.30;99.90
10692;DHT22;5396;50.950;6.988;2023-06-24T06:46:58;20.30;99.90
10692;DHT22;5396;50.950;6.988;2023-06-24T06:49:24;20.40;99.90
10692;DHT22;5396;50.950;6.988;2023-06-24T06:51:51;20.50;99.90
10692;DHT22;5396;50.950;6.988;2023-06-24T06:54:17;20.60;99.90
10692;DHT22;5396;50.950;6.988;2023-06-24T06:56:42;20.70;99.90
10692;DHT22;5396;50.950;6.988;2023-06-24T06:59:08;20.80;99.90
10692;DHT22;5396;50.950;6.988;2023-06-24T07:01:33;20.80;99.90
10692;DHT22;5396;50.950;6.988;2023-06-24T07:03:59;20.80;99.90
10692;DHT22;5396;50.950;6.988;2023-06-24T07:06:25;20.90;99.90
10692;DHT22;5396;50.950;6.988;2023-06-24T07:08:50;20.90;99.90
10692;DHT22;5396;50.950;6.988;2023-06-24T07:11:16;21.00;99.90
10692;DHT22;5396;50.950;6.988;2023-06-24T07:13:41;21.10;99.90
10692;DHT22;5396;50.950;6.988;2023-06-24T07:16:07;21.10;99.90
10692;DHT22;5396;50.950;6.988;2023-06-24T07:18:33;21.20;99.90
10692;DHT22;5396;50.950;6.988;2023-06-24T07:21:00;21.30;99.90
10692;DHT22;5396;50.950;6.988;2023-06-24T07:23:25;21.30;99.90
10692;DHT22;5396;50.950;6.988;2023-06-24T07:25:51;21.50;99.90
10692;DHT22;5396;50.950;6.988;2023-06-24T07:28:17;21.50;99.90
10692;DHT22;5396;50.950;6.988;2023-06-24T07:30:42;21.70;99.90
10692;DHT22;5396;50.950;6.988;2023-06-24T07:33:10;21.70;99.90
10692;DHT22;5396;50.950;6.988;2023-06-24T07:35:35;21.70;99.90
10692;DHT22;5396;50.950;6.988;2023-06-24T07:38:01;21.80;99.90
10692;DHT22;5396;50.950;6.988;2023-06-24T07:40:27;21.80;99.90
10692;DHT22;5396;50.950;6.988;2023-06-24T07:42:53;21.90;99.90
10692;DHT22;5396;50.950;6.988;2023-06-24T07:45:19;22.20;99.90
10692;DHT22;5396;50.950;6.988;2023-06-24T07:47:45;22.20;99.90
10692;DHT22;5396;50.950;6.988;2023-06-24T07:50:10;22.20;99.90
10692;DHT22;5396;50.950;6.988;2023-06-24T07:52:37;22.30;99.90
10692;DHT22;5396;50.950;6.988;2023-06-24T07:55:03;22.30;99.90
10692;DHT22;5396;50.950;6.988;2023-06-24T07:57:29;22.30;99.90
10692;DHT22;5396;50.950;6.988;2023-06-24T07:59:55;22.30;99.90
10692;DHT22;5396;50.950;6.988;2023-06-24T08:02:20;22.30;99.90
10692;DHT22;5396;50.950;6.988;2023-06-24T08:04:46;22.40;99.90
10692;DHT22;5396;50.950;6.988;2023-06-24T08:07:12;22.60;99.90
10692;DHT22;5396;50.950;6.988;2023-06-24T08:09:38;22.60;99.90
10692;DHT22;5396;50.950;6.988;2023-06-24T08:12:05;22.60;99.90
10692;DHT22;5396;50.950;6.988;2023-06-24T08:14:35;22.70;99.90
10692;DHT22;5396;50.950;6.988;2023-06-24T08:17:01;22.70;99.90
10692;DHT22;5396;50.950;6.988;2023-06-24T08:19:27;22.80;99.90
10692;DHT22;5396;50.950;6.988;2023-06-24T08:21:52;22.80;99.90
10692;DHT22;5396;50.950;6.988;2023-06-24T08:24:19;22.90;99.90
10692;DHT22;5396;50.950;6.988;2023-06-24T08:26:44;22.90;99.90
10692;DHT22;5396;50.950;6.988;2023-06-24T08:29:10;22.90;99.90
10692;DHT22;5396;50.950;6.988;2023-06-24T08:31:35;22.90;99.90
10692;DHT22;5396;50.950;6.988;2023-06-24T08:34:01;23.00;99.90
10692;DHT22;5396;50.950;6.988;2023-06-24T08:36:32;23.00;99.90
10692;DHT22;5396;50.950;6.988;2023-06-24T08:39:02;23.10;99.90
10692;DHT22;5396;50.950;6.988;2023-06-24T08:41:27;23.10;99.90
10692;DHT22;5396;50.950;6.988;2023-06-24T08:43:53;23.20;99.90
10692;DHT22;5396;50.950;6.988;2023-06-24T08:46:24;23.30;99.90
10692;DHT22;5396;50.950;6.988;2023-06-24T08:48:57;23.40;99.90
10692;DHT22;5396;50.950;6.988;2023-06-24T08:51:27;23.40;99.90
10692;DHT22;5396;50.950;6.988;2023-06-24T08:53:55;23.50;99.90
10692;DHT22;5396;50.950;6.988;2023-06-24T08:56:21;23.60;99.90
10692;DHT22;5396;50.950;6.988;2023-06-24T08:58:47;23.70;99.90
10692;DHT22;5396;50.950;6.988;2023-06-24T09:01:12;23.70;99.90
10692;DHT22;5396;50.950;6.988;2023-06-24T09:03:38;23.70;99.90
10692;DHT22;5396;50.950;6.988;2023-06-24T09:06:05;23.80;99.90
10692;DHT22;5396;50.950;6.988;2023-06-24T09:08:30;23.80;99.90
10692;DHT22;5396;50.950;6.988;2023-06-24T09:10:56;23.80;99.90
10692;DHT22;5396;50.950;6.988;2023-06-24T09:13:33;23.80;99.90
10692;DHT22;5396;50.950;6.988;2023-06-24T09:16:00;23.90;99.90
10692;DHT22;5396;50.950;6.988;2023-06-24T09:18:33;24.00;99.90
10692;DHT22;5396;50.950;6.988;2023-06-24T09:20:59;24.20;99.90
10692;DHT22;5396;50.950;6.988;2023-06-24T09:23:26;24.30;99.90
10692;DHT22;5396;50.950;6.988;2023-06-24T09:25:57;24.40;99.90
10692;DHT22;5396;50.950;6.988;2023-06-24T09:28:26;24.50;99.90
10692;DHT22;5396;50.950;6.988;2023-06-24T09:31:08;24.60;99.90
10692;DHT22;5396;50.950;6.988;2023-06-24T09:33:35;24.80;99.90
10692;DHT22;5396;50.950;6.988;2023-06-24T09:36:04;24.90;99.90
10692;DHT22;5396;50.950;6.988;2023-06-24T09:38:35;24.90;99.90
10692;DHT22;5396;50.950;6.988;2023-06-24T09:41:05;24.80;99.90
10692;DHT22;5396;50.950;6.988;2023-06-24T09:43:34;24.90;99.90
10692;DHT22;5396;50.950;6.988;2023-06-24T09:46:02;24.90;99.90
10692;DHT22;5396;50.950;6.988;2023-06-24T09:48:28;24.90;99.90
10692;DHT22;5396;50.950;6.988;2023-06-24T09:50:58;24.90;99.90
10692;DHT22;5396;50.950;6.988;2023-06-24T09:53:25;24.90;99.90
10692;DHT22;5396;50.950;6.988;2023-06-24T09:55:51;25.10;99.90
10692;DHT22;5396;50.950;6.988;2023-06-24T09:58:18;25.20;99.90
10692;DHT22;5396;50.950;6.988;2023-06-24T10:00:44;25.30;99.90
10692;DHT22;5396;50.950;6.988;2023-06-24T10:03:10;25.50;99.90
10692;DHT22;5396;50.950;6.988;2023-06-24T10:05:37;25.50;99.90
10692;DHT22;5396;50.950;6.988;2023-06-24T10:08:04;25.50;99.90
10692;DHT22;5396;50.950;6.988;2023-06-24T10:10:31;25.50;99.90
10692;DHT22;5396;50.950;6.988;2023-06-24T10:12:57;25.50;99.90
10692;DHT22;5396;50.950;6.988;2023-06-24T10:15:23;25.50;99.90
10692;DHT22;5396;50.950;6.988;2023-06-24T10:17:50;25.40;99.90
10692;DHT22;5396;50.950;6.988;2023-06-24T10:20:24;25.20;99.90
10692;DHT22;5396;50.950;6.988;2023-06-24T10:22:51;25.30;99.90
10692;DHT22;5396;50.950;6.988;2023-06-24T10:25:17;25.20;99.90
10692;DHT22;5396;50.950;6.988;2023-06-24T10:27:43;25.00;99.90
10692;DHT22;5396;50.950;6.988;2023-06-24T10:30:17;24.90;99.90
10692;DHT22;5396;50.950;6.988;2023-06-24T10:32:43;24.90;99.90
10692;DHT22;5396;50.950;6.988;2023-06-24T10:35:26;25.00;99.90
10692;DHT22;5396;50.950;6.988;2023-06-24T10:38:01;25.20;99.90
10692;DHT22;5396;50.950;6.988;2023-06-24T10:40:43;25.40;99.90
10692;DHT22;5396;50.950;6.988;2023-06-24T10:45:51;25.80;99.90
10692;DHT22;5396;50.950;6.988;2023-06-24T10:48:17;25.90;99.90
10692;DHT22;5396;50.950;6.988;2023-06-24T10:50:46;26.10;99.90
10692;DHT22;5396;50.950;6.988;2023-06-24T10:53:13;26.00;99.90
10692;DHT22;5396;50.950;6.988;2023-06-24T10:55:39;26.00;99.90
10692;DHT22;5396;50.950;6.988;2023-06-24T10:58:09;26.20;99.90
10692;DHT22;5396;50.950;6.988;2023-06-24T11:00:35;26.30;99.90
10692;DHT22;5396;50.950;6.988;2023-06-24T11:03:14;26.30;99.90
10692;DHT22;5396;50.950;6.988;2023-06-24T11:05:42;26.30;99.90
10692;DHT22;5396;50.950;6.988;2023-06-24T11:08:08;26.50;99.90
10692;DHT22;5396;50.950;6.988;2023-06-24T11:10:50;26.70;99.90
10692;DHT22;5396;50.950;6.988;2023-06-24T11:13:20;26.60;99.90
10692;DHT22;5396;50.950;6.988;2023-06-24T11:15:45;26.60;99.90
10692;DHT22;5396;50.950;6.988;2023-06-24T11:18:11;26.60;99.90
10692;DHT22;5396;50.950;6.988;2023-06-24T11:20:38;26.70;99.90
10692;DHT22;5396;50.950;6.988;2023-06-24T11:23:09;26.70;99.90
10692;DHT22;5396;50.950;6.988;2023-06-24T11:25:40;26.80;99.90
10692;DHT22;5396;50.950;6.988;2023-06-24T11:28:13;27.00;99.90
10692;DHT22;5396;50.950;6.988;2023-06-24T11:30:38;27.00;99.90
10692;DHT22;5396;50.950;6.988;2023-06-24T11:33:04;26.90;99.90
10692;DHT22;5396;50.950;6.988;2023-06-24T11:35:30;26.80;99.90
10692;DHT22;5396;50.950;6.988;2023-06-24T11:38:00;26.90;99.90
10692;DHT22;5396;50.950;6.988;2023-06-24T11:40:26;26.90;99.90
10692;DHT22;5396;50.950;6.988;2023-06-24T11:42:51;27.10;99.90
10692;DHT22;5396;50.950;6.988;2023-06-24T11:45:20;27.30;99.90
10692;DHT22;5396;50.950;6.988;2023-06-24T11:47:46;27.40;99.90
10692;DHT22;5396;50.950;6.988;2023-06-24T11:50:14;27.30;99.90
10692;DHT22;5396;50.950;6.988;2023-06-24T11:52:47;27.20;99.90
10692;DHT22;5396;50.950;6.988;2023-06-24T11:55:18;27.40;99.90
10692;DHT22;5396;50.950;6.988;2023-06-24T11:57:59;27.40;99.90
10692;DHT22;5396;50.950;6.988;2023-06-24T12:00:31;27.40;99.90
10692;DHT22;5396;50.950;6.988;2023-06-24T12:03:05;27.30;99.90
10692;DHT22;5396;50.950;6.988;2023-06-24T12:05:33;27.20;99.90
10692;DHT22;5396;50.950;6.988;2023-06-24T12:08:04;27.10;99.90
10692;DHT22;5396;50.950;6.988;2023-06-24T12:10:33;27.00;99.90
10692;DHT22;5396;50.950;6.988;2023-06-24T12:13:00;27.00;99.90
10692;DHT22;5396;50.950;6.988;2023-06-24T12:15:27;27.00;99.90
10692;DHT22;5396;50.950;6.988;2023-06-24T12:17:53;27.20;99.90
10692;DHT22;5396;50.950;6.988;2023-06-24T12:20:19;27.20;99.90
10692;DHT22;5396;50.950;6.988;2023-06-24T12:22:46;27.20;99.90
10692;DHT22;5396;50.950;6.988;2023-06-24T12:25:12;27.30;99.90
10692;DHT22;5396;50.950;6.988;2023-06-24T12:27:38;27.50;99.90
10692;DHT22;5396;50.950;6.988;2023-06-24T12:30:06;27.50;99.90
10692;DHT22;5396;50.950;6.988;2023-06-24T12:32:32;27.60;99.90
10692;DHT22;5396;50.950;6.988;2023-06-24T12:34:57;27.70;99.90
10692;DHT22;5396;50.950;6.988;2023-06-24T12:37:23;28.00;99.90
10692;DHT22;5396;50.950;6.988;2023-06-24T12:39:50;28.50;99.90
10692;DHT22;5396;50.950;6.988;2023-06-24T12:42:18;29.40;99.90
10692;DHT22;5396;50.950;6.988;2023-06-24T12:44:44;30.70;99.90
10692;DHT22;5396;50.950;6.988;2023-06-24T12:47:10;32.00;99.90
10692;DHT22;5396;50.950;6.988;2023-06-24T12:49:35;32.70;99.90
10692;DHT22;5396;50.950;6.988;2023-06-24T12:52:02;33.70;99.90
10692;DHT22;5396;50.950;6.988;2023-06-24T12:54:27;33.40;99.90
10692;DHT22;5396;50.950;6.988;2023-06-24T12:56:53;31.70;99.90
10692;DHT22;5396;50.950;6.988;2023-06-24T12:59:18;30.20;99.90
10692;DHT22;5396;50.950;6.988;2023-06-24T13:01:44;29.70;99.90
10692;DHT22;5396;50.950;6.988;2023-06-24T13:04:10;30.60;99.90
10692;DHT22;5396;50.950;6.988;2023-06-24T13:06:39;32.40;99.90
10692;DHT22;5396;50.950;6.988;2023-06-24T13:09:05;33.50;99.90
10692;DHT22;5396;50.950;6.988;2023-06-24T13:11:31;33.80;99.90
10692;DHT22;5396;50.950;6.988;2023-06-24T13:13:57;33.90;99.90
10692;DHT22;5396;50.950;6.988;2023-06-24T13:16:23;34.20;99.90
10692;DHT22;5396;50.950;6.988;2023-06-24T13:18:49;35.30;99.90
10692;DHT22;5396;50.950;6.988;2023-06-24T13:21:15;35.10;99.90
10692;DHT22;5396;50.950;6.988;2023-06-24T13:23:40;35.00;99.90
10692;DHT22;5396;50.950;6.988;2023-06-24T13:26:07;33.90;99.90
10692;DHT22;5396;50.950;6.988;2023-06-24T13:28:32;32.80;99.90
10692;DHT22;5396;50.950;6.988;2023-06-24T13:30:58;32.70;99.90
10692;DHT22;5396;50.950;6.988;2023-06-24T13:33:24;33.50;99.90
10692;DHT22;5396;50.950;6.988;2023-06-24T13:35:51;34.40;99.90
10692;DHT22;5396;50.950;6.988;2023-06-24T13:38:16;34.70;99.90
10692;DHT22;5396;50.950;6.988;2023-06-24T13:40:42;35.30;99.90
10692;DHT22;5396;50.950;6.988;2023-06-24T13:43:08;35.50;99.90
10692;DHT22;5396;50.950;6.988;2023-06-24T13:45:33;36.20;99.90
10692;DHT22;5396;50.950;6.988;2023-06-24T13:47:59;36.80;99.90
10692;DHT22;5396;50.950;6.988;2023-06-24T13:50:25;36.60;99.90
10692;DHT22;5396;50.950;6.988;2023-06-24T13:52:50;37.80;99.90
10692;DHT22;5396;50.950;6.988;2023-06-24T13:55:16;37.80;99.90
10692;DHT22;5396;50.950;6.988;2023-06-24T13:57:41;38.00;99.90
10692;DHT22;5396;50.950;6.988;2023-06-24T14:00:07;38.50;99.90
10692;DHT22;5396;50.950;6.988;2023-06-24T14:02:34;39.10;99.90
10692;DHT22;5396;50.950;6.988;2023-06-24T14:05:00;39.20;99.90
10692;DHT22;5396;50.950;6.988;2023-06-24T14:07:26;38.60;99.90
10692;DHT22;5396;50.950;6.988;2023-06-24T14:09:51;38.40;99.90
10692;DHT22;5396;50.950;6.988;2023-06-24T14:12:17;38.70;99.90
10692;DHT22;5396;50.950;6.988;2023-06-24T14:14:42;39.00;99.90
10692;DHT22;5396;50.950;6.988;2023-06-24T14:17:08;38.30;99.90
10692;DHT22;5396;50.950;6.988;2023-06-24T14:19:36;38.10;99.90
10692;DHT22;5396;50.950;6.988;2023-06-24T14:22:02;37.40;99.90
10692;DHT22;5396;50.950;6.988;2023-06-24T14:24:28;37.30;99.90
10692;DHT22;5396;50.950;6.988;2023-06-24T14:26:54;36.10;99.90
10692;DHT22;5396;50.950;6.988;2023-06-24T14:29:19;35.80;99.90
10692;DHT22;5396;50.950;6.988;2023-06-24T14:31:45;37.00;99.90
10692;DHT22;5396;50.950;6.988;2023-06-24T14:34:10;37.10;99.90
10692;DHT22;5396;50.950;6.988;2023-06-24T14:36:36;37.90;99.90
10692;DHT22;5396;50.950;6.988;2023-06-24T14:39:02;38.80;99.90
10692;DHT22;5396;50.950;6.988;2023-06-24T14:41:27;38.20;99.90
10692;DHT22;5396;50.950;6.988;2023-06-24T14:43:53;36.40;99.90
10692;DHT22;5396;50.950;6.988;2023-06-24T14:46:18;35.20;99.90
10692;DHT22;5396;50.950;6.988;2023-06-24T14:48:44;35.10;99.90
10692;DHT22;5396;50.950;6.988;2023-06-24T14:51:10;35.00;99.90
10692;DHT22;5396;50.950;6.988;2023-06-24T14:53:36;35.20;99.90
10692;DHT22;5396;50.950;6.988;2023-06-24T14:56:01;35.60;99.90
10692;DHT22;5396;50.950;6.988;2023-06-24T14:58:27;35.60;99.90
10692;DHT22;5396;50.950;6.988;2023-06-24T15:00:52;35.00;99.90
10692;DHT22;5396;50.950;6.988;2023-06-24T15:03:18;34.50;99.90
10692;DHT22;5396;50.950;6.988;2023-06-24T15:05:44;33.80;99.90
10692;DHT22;5396;50.950;6.988;2023-06-24T15:08:10;32.60;99.90
10692;DHT22;5396;50.950;6.988;2023-06-24T15:10:35;31.70;99.90
10692;DHT22;5396;50.950;6.988;2023-06-24T15:13:01;31.20;99.90
10692;DHT22;5396;50.950;6.988;2023-06-24T15:15:26;30.80;99.90
10692;DHT22;5396;50.950;6.988;2023-06-24T15:17:52;31.10;99.90
10692;DHT22;5396;50.950;6.988;2023-06-24T15:20:20;31.60;99.90
10692;DHT22;5396;50.950;6.988;2023-06-24T15:22:45;31.60;99.90
10692;DHT22;5396;50.950;6.988;2023-06-24T15:25:11;31.60;99.90
10692;DHT22;5396;50.950;6.988;2023-06-24T15:27:37;31.00;99.90
10692;DHT22;5396;50.950;6.988;2023-06-24T15:30:03;30.60;99.90
10692;DHT22;5396;50.950;6.988;2023-06-24T15:32:29;30.50;99.90
10692;DHT22;5396;50.950;6.988;2023-06-24T15:34:55;30.30;99.90
10692;DHT22;5396;50.950;6.988;2023-06-24T15:37:20;30.30;99.90
10692;DHT22;5396;50.950;6.988;2023-06-24T15:39:46;30.10;99.90
10692;DHT22;5396;50.950;6.988;2023-06-24T15:42:11;30.00;99.90
10692;DHT22;5396;50.950;6.988;2023-06-24T15:44:37;29.90;99.90
10692;DHT22;5396;50.950;6.988;2023-06-24T15:47:04;29.90;99.90
10692;DHT22;5396;50.950;6.988;2023-06-24T15:49:30;30.00;99.90
10692;DHT22;5396;50.950;6.988;2023-06-24T15:51:55;29.90;99.90
10692;DHT22;5396;50.950;6.988;2023-06-24T15:54:21;29.80;99.90